sensor_id;sensor_type;location;lat;lon;timestamp;P1;durP1;ratioP1;P2;durP2;ratioP2
5032;SDS011;2535;49.888;8.942;2023-11-21T00:02:20;10.30;;;1.23;;
5032;SDS011;2535;49.888;8.942;2023-11-21T00:04:47;10.37;;;1.20;;
5032;SDS011;2535;49.888;8.942;2023-11-21T00:07:13;10.80;;;1.17;;
5032;SDS011;2535;49.888;8.942;2023-11-21T00:09:39;10.27;;;1.20;;
5032;SDS011;2535;49.888;8.942;2023-11-21T00:12:06;10.23;;;1.10;;
5032;SDS011;2535;49.888;8.942;2023-11-21T00:14:34;10.10;;;1.07;;
5032;SDS011;2535;49.888;8.942;2023-11-21T00:17:00;12.60;;;1.77;;
5032;SDS011;2535;49.888;8.942;2023-11-21T00:19:26;10.10;;;1.00;;
5032;SDS011;2535;49.888;8.942;2023-11-21T00:21:53;10.50;;;1.40;;
5032;SDS011;2535;49.888;8.942;2023-11-21T00:24:19;10.60;;;1.20;;
5032;SDS011;2535;49.888;8.942;2023-11-21T00:26:45;10.20;;;1.00;;
5032;SDS011;2535;49.888;8.942;2023-11-21T00:29:13;10.93;;;1.30;;
5032;SDS011;2535;49.888;8.942;2023-11-21T00:31:42;10.23;;;1.13;;
5032;SDS011;2535;49.888;8.942;2023-11-21T00:34:08;10.20;;;1.10;;
5032;SDS011;2535;49.888;8.942;2023-11-21T00:36:34;10.00;;;0.97;;
5032;SDS011;2535;49.888;8.942;2023-11-21T00:39:00;11.03;;;1.20;;
5032;SDS011;2535;49.888;8.942;2023-11-21T00:41:28;10.27;;;1.10;;
5032;SDS011;2535;49.888;8.942;2023-11-21T00:43:54;11.13;;;1.10;;
5032;SDS011;2535;49.888;8.942;2023-11-21T00:46:20;11.30;;;1.30;;
5032;SDS011;2535;49.888;8.942;2023-11-21T00:48:46;10.50;;;1.07;;
5032;SDS011;2535;49.888;8.942;2023-11-21T00:51:12;10.37;;;1.13;;
5032;SDS011;2535;49.888;8.942;2023-11-21T00:53:38;10.23;;;0.90;;
5032;SDS011;2535;49.888;8.942;2023-11-21T00:56:04;10.00;;;0.87;;
5032;SDS011;2535;49.888;8.942;2023-11-21T00:58:31;10.23;;;1.00;;
5032;SDS011;2535;49.888;8.942;2023-11-21T01:00:57;12.90;;;1.43;;
5032;SDS011;2535;49.888;8.942;2023-11-21T01:03:23;10.33;;;1.00;;
5032;SDS011;2535;49.888;8.942;2023-11-21T01:05:49;10.60;;;1.07;;
5032;SDS011;2535;49.888;8.942;2023-11-21T01:08:15;11.87;;;1.20;;
5032;SDS011;2535;49.888;8.942;2023-11-21T01:10:41;10.50;;;1.20;;
5032;SDS011;2535;49.888;8.942;2023-11-21T01:13:07;10.83;;;1.20;;
5032;SDS011;2535;49.888;8.942;2023-11-21T01:15:34;10.60;;;1.00;;
5032;SDS011;2535;49.888;8.942;2023-11-21T01:18:00;11.23;;;1.60;;
5032;SDS011;2535;49.888;8.942;2023-11-21T01:20:25;11.20;;;1.30;;
5032;SDS011;2535;49.888;8.942;2023-11-21T01:22:51;13.23;;;1.40;;
5032;SDS011;2535;49.888;8.942;2023-11-21T01:25:18;11.47;;;1.63;;
5032;SDS011;2535;49.888;8.942;2023-11-21T01:27:46;15.43;;;1.20;;
5032;SDS011;2535;49.888;8.942;2023-11-21T01:30:12;12.23;;;1.30;;
5032;SDS011;2535;49.888;8.942;2023-11-21T01:32:38;16.97;;;1.30;;
5032;SDS011;2535;49.888;8.942;2023-11-21T01:35:05;11.37;;;1.10;;
5032;SDS011;2535;49.888;8.942;2023-11-21T01:37:32;12.83;;;1.30;;
5032;SDS011;2535;49.888;8.942;2023-11-21T01:39:58;11.33;;;1.00;;
5032;SDS011;2535;49.888;8.942;2023-11-21T01:42:26;15.50;;;1.70;;
5032;SDS011;2535;49.888;8.942;2023-11-21T01:44:54;13.60;;;1.33;;
5032;SDS011;2535;49.888;8.942;2023-11-21T01:47:20;11.90;;;1.20;;
5032;SDS011;2535;49.888;8.942;2023-11-21T01:49:46;12.27;;;1.30;;
5032;SDS011;2535;49.888;8.942;2023-11-21T01:52:13;16.20;;;1.50;;
5032;SDS011;2535;49.888;8.942;2023-11-21T01:54:40;11.97;;;1.30;;
5032;SDS011;2535;49.888;8.942;2023-11-21T01:57:07;11.60;;;1.00;;
5032;SDS011;2535;49.888;8.942;2023-11-21T01:59:36;11.73;;;1.00;;
5032;SDS011;2535;49.888;8.942;2023-11-21T02:02:03;11.80;;;1.23;;
5032;SDS011;2535;49.888;8.942;2023-11-21T02:04:30;11.77;;;1.00;;
5032;SDS011;2535;49.888;8.942;2023-11-21T02:06:57;11.50;;;0.90;;
5032;SDS011;2535;49.888;8.942;2023-11-21T02:09:26;11.57;;;1.10;;
5032;SDS011;2535;49.888;8.942;2023-11-21T02:11:54;11.30;;;1.10;;
5032;SDS011;2535;49.888;8.942;2023-11-21T02:14:20;11.53;;;1.07;;
5032;SDS011;2535;49.888;8.942;2023-11-21T02:16:47;12.03;;;1.27;;
5032;SDS011;2535;49.888;8.942;2023-11-21T02:19:14;14.47;;;1.30;;
5032;SDS011;2535;49.888;8.942;2023-11-21T02:21:45;11.70;;;1.43;;
5032;SDS011;2535;49.888;8.942;2023-11-21T02:24:11;11.67;;;1.10;;
5032;SDS011;2535;49.888;8.942;2023-11-21T02:26:37;11.53;;;1.20;;
5032;SDS011;2535;49.888;8.942;2023-11-21T02:29:03;12.10;;;1.07;;
5032;SDS011;2535;49.888;8.942;2023-11-21T02:31:29;11.40;;;1.00;;
5032;SDS011;2535;49.888;8.942;2023-11-21T02:33:57;11.60;;;0.90;;
5032;SDS011;2535;49.888;8.942;2023-11-21T02:36:23;11.77;;;1.30;;
5032;SDS011;2535;49.888;8.942;2023-11-21T02:38:50;11.77;;;1.10;;
5032;SDS011;2535;49.888;8.942;2023-11-21T02:41:16;11.40;;;1.00;;
5032;SDS011;2535;49.888;8.942;2023-11-21T02:43:42;11.67;;;1.20;;
5032;SDS011;2535;49.888;8.942;2023-11-21T02:46:08;11.83;;;1.20;;
5032;SDS011;2535;49.888;8.942;2023-11-21T02:48:34;11.60;;;1.17;;
5032;SDS011;2535;49.888;8.942;2023-11-21T02:51:01;11.60;;;1.30;;
5032;SDS011;2535;49.888;8.942;2023-11-21T02:53:27;11.63;;;1.17;;
5032;SDS011;2535;49.888;8.942;2023-11-21T02:55:53;11.43;;;1.10;;
5032;SDS011;2535;49.888;8.942;2023-11-21T02:58:19;11.90;;;1.20;;
5032;SDS011;2535;49.888;8.942;2023-11-21T03:00:45;11.43;;;1.10;;
5032;SDS011;2535;49.888;8.942;2023-11-21T03:03:11;11.47;;;1.00;;
5032;SDS011;2535;49.888;8.942;2023-11-21T03:05:39;11.37;;;1.13;;
5032;SDS011;2535;49.888;8.942;2023-11-21T03:08:05;11.50;;;1.17;;
5032;SDS011;2535;49.888;8.942;2023-11-21T03:10:31;11.60;;;1.10;;
5032;SDS011;2535;49.888;8.942;2023-11-21T03:12:58;11.63;;;1.20;;
5032;SDS011;2535;49.888;8.942;2023-11-21T03:15:24;11.53;;;1.10;;
5032;SDS011;2535;49.888;8.942;2023-11-21T03:17:50;11.57;;;1.10;;
5032;SDS011;2535;49.888;8.942;2023-11-21T03:20:16;11.73;;;1.20;;
5032;SDS011;2535;49.888;8.942;2023-11-21T03:22:42;11.73;;;1.20;;
5032;SDS011;2535;49.888;8.942;2023-11-21T03:25:08;11.63;;;1.30;;
5032;SDS011;2535;49.888;8.942;2023-11-21T03:27:36;13.50;;;1.40;;
5032;SDS011;2535;49.888;8.942;2023-11-21T03:30:03;11.83;;;1.30;;
5032;SDS011;2535;49.888;8.942;2023-11-21T03:32:31;11.73;;;1.10;;
5032;SDS011;2535;49.888;8.942;2023-11-21T03:34:58;12.20;;;1.50;;
5032;SDS011;2535;49.888;8.942;2023-11-21T03:37:24;11.63;;;1.17;;
5032;SDS011;2535;49.888;8.942;2023-11-21T03:39:52;11.77;;;1.10;;
5032;SDS011;2535;49.888;8.942;2023-11-21T03:42:18;11.60;;;1.10;;
5032;SDS011;2535;49.888;8.942;2023-11-21T03:44:44;11.80;;;1.17;;
5032;SDS011;2535;49.888;8.942;2023-11-21T03:47:10;12.10;;;1.37;;
5032;SDS011;2535;49.888;8.942;2023-11-21T03:49:36;11.60;;;1.07;;
5032;SDS011;2535;49.888;8.942;2023-11-21T03:52:03;11.50;;;1.07;;
5032;SDS011;2535;49.888;8.942;2023-11-21T03:54:29;12.27;;;1.30;;
5032;SDS011;2535;49.888;8.942;2023-11-21T03:56:55;11.83;;;1.20;;
5032;SDS011;2535;49.888;8.942;2023-11-21T03:59:21;11.80;;;1.30;;
5032;SDS011;2535;49.888;8.942;2023-11-21T04:01:49;11.63;;;1.20;;
5032;SDS011;2535;49.888;8.942;2023-11-21T04:04:15;12.03;;;1.10;;
5032;SDS011;2535;49.888;8.942;2023-11-21T04:06:41;12.10;;;1.40;;
5032;SDS011;2535;49.888;8.942;2023-11-21T04:09:07;11.90;;;1.33;;
5032;SDS011;2535;49.888;8.942;2023-11-21T04:11:33;12.30;;;1.33;;
5032;SDS011;2535;49.888;8.942;2023-11-21T04:13:59;11.57;;;1.20;;
5032;SDS011;2535;49.888;8.942;2023-11-21T04:16:25;11.50;;;1.10;;
5032;SDS011;2535;49.888;8.942;2023-11-21T04:18:51;11.97;;;1.23;;
5032;SDS011;2535;49.888;8.942;2023-11-21T04:21:17;13.57;;;1.50;;
5032;SDS011;2535;49.888;8.942;2023-11-21T04:23:43;12.20;;;1.33;;
5032;SDS011;2535;49.888;8.942;2023-11-21T04:26:08;11.97;;;1.20;;
5032;SDS011;2535;49.888;8.942;2023-11-21T04:28:34;12.00;;;1.40;;
5032;SDS011;2535;49.888;8.942;2023-11-21T04:31:00;12.27;;;1.57;;
5032;SDS011;2535;49.888;8.942;2023-11-21T04:33:27;11.70;;;1.00;;
5032;SDS011;2535;49.888;8.942;2023-11-21T04:35:54;11.60;;;1.10;;
5032;SDS011;2535;49.888;8.942;2023-11-21T04:38:19;11.60;;;1.10;;
5032;SDS011;2535;49.888;8.942;2023-11-21T04:40:45;12.70;;;1.50;;
5032;SDS011;2535;49.888;8.942;2023-11-21T04:43:11;11.73;;;1.00;;
5032;SDS011;2535;49.888;8.942;2023-11-21T04:45:37;11.53;;;1.00;;
5032;SDS011;2535;49.888;8.942;2023-11-21T04:48:03;11.73;;;1.20;;
5032;SDS011;2535;49.888;8.942;2023-11-21T04:50:31;11.67;;;1.00;;
5032;SDS011;2535;49.888;8.942;2023-11-21T04:52:57;11.70;;;1.10;;
5032;SDS011;2535;49.888;8.942;2023-11-21T04:55:23;11.73;;;1.00;;
5032;SDS011;2535;49.888;8.942;2023-11-21T04:57:52;11.63;;;1.00;;
5032;SDS011;2535;49.888;8.942;2023-11-21T05:00:18;11.70;;;1.10;;
5032;SDS011;2535;49.888;8.942;2023-11-21T05:02:46;11.60;;;0.97;;
5032;SDS011;2535;49.888;8.942;2023-11-21T05:05:12;11.60;;;1.03;;
5032;SDS011;2535;49.888;8.942;2023-11-21T05:07:48;11.70;;;1.10;;
5032;SDS011;2535;49.888;8.942;2023-11-21T05:10:14;11.70;;;1.20;;
5032;SDS011;2535;49.888;8.942;2023-11-21T05:12:41;12.80;;;1.43;;
5032;SDS011;2535;49.888;8.942;2023-11-21T05:15:07;12.20;;;1.47;;
5032;SDS011;2535;49.888;8.942;2023-11-21T05:17:37;14.43;;;1.30;;
5032;SDS011;2535;49.888;8.942;2023-11-21T05:20:07;12.27;;;1.30;;
5032;SDS011;2535;49.888;8.942;2023-11-21T05:22:34;11.80;;;1.10;;
5032;SDS011;2535;49.888;8.942;2023-11-21T05:25:01;11.67;;;1.20;;
5032;SDS011;2535;49.888;8.942;2023-11-21T05:27:28;11.97;;;1.10;;
5032;SDS011;2535;49.888;8.942;2023-11-21T05:29:55;11.53;;;1.10;;
5032;SDS011;2535;49.888;8.942;2023-11-21T05:32:21;12.00;;;1.10;;
5032;SDS011;2535;49.888;8.942;2023-11-21T05:34:47;11.90;;;1.23;;
5032;SDS011;2535;49.888;8.942;2023-11-21T05:37:14;11.97;;;1.33;;
5032;SDS011;2535;49.888;8.942;2023-11-21T05:39:40;11.73;;;1.00;;
5032;SDS011;2535;49.888;8.942;2023-11-21T05:42:06;11.80;;;1.17;;
5032;SDS011;2535;49.888;8.942;2023-11-21T05:44:34;12.70;;;1.40;;
5032;SDS011;2535;49.888;8.942;2023-11-21T05:47:00;12.27;;;1.37;;
5032;SDS011;2535;49.888;8.942;2023-11-21T05:49:25;12.33;;;1.40;;
5032;SDS011;2535;49.888;8.942;2023-11-21T05:51:53;12.17;;;1.30;;
5032;SDS011;2535;49.888;8.942;2023-11-21T05:54:19;13.97;;;1.70;;
5032;SDS011;2535;49.888;8.942;2023-11-21T05:56:45;13.50;;;2.27;;
5032;SDS011;2535;49.888;8.942;2023-11-21T05:59:11;12.17;;;1.33;;
5032;SDS011;2535;49.888;8.942;2023-11-21T06:01:37;12.40;;;1.60;;
5032;SDS011;2535;49.888;8.942;2023-11-21T06:04:04;12.53;;;1.27;;
5032;SDS011;2535;49.888;8.942;2023-11-21T06:06:30;15.67;;;2.43;;
5032;SDS011;2535;49.888;8.942;2023-11-21T06:08:56;12.20;;;1.60;;
5032;SDS011;2535;49.888;8.942;2023-11-21T06:11:22;13.97;;;1.77;;
5032;SDS011;2535;49.888;8.942;2023-11-21T06:13:52;12.17;;;1.47;;
5032;SDS011;2535;49.888;8.942;2023-11-21T06:16:18;13.60;;;2.30;;
5032;SDS011;2535;49.888;8.942;2023-11-21T06:18:47;14.17;;;2.43;;
5032;SDS011;2535;49.888;8.942;2023-11-21T06:21:13;15.37;;;1.90;;
5032;SDS011;2535;49.888;8.942;2023-11-21T06:23:41;13.33;;;2.27;;
5032;SDS011;2535;49.888;8.942;2023-11-21T06:26:07;16.13;;;2.80;;
5032;SDS011;2535;49.888;8.942;2023-11-21T06:28:34;12.70;;;1.73;;
5032;SDS011;2535;49.888;8.942;2023-11-21T06:31:01;12.60;;;1.70;;
5032;SDS011;2535;49.888;8.942;2023-11-21T06:33:30;12.57;;;1.60;;
5032;SDS011;2535;49.888;8.942;2023-11-21T06:35:56;13.60;;;1.67;;
5032;SDS011;2535;49.888;8.942;2023-11-21T06:38:22;20.27;;;3.00;;
5032;SDS011;2535;49.888;8.942;2023-11-21T06:40:48;12.77;;;1.80;;
5032;SDS011;2535;49.888;8.942;2023-11-21T06:43:14;12.73;;;1.80;;
5032;SDS011;2535;49.888;8.942;2023-11-21T06:45:40;13.90;;;2.10;;
5032;SDS011;2535;49.888;8.942;2023-11-21T06:48:06;13.27;;;2.30;;
5032;SDS011;2535;49.888;8.942;2023-11-21T06:50:32;12.60;;;1.97;;
5032;SDS011;2535;49.888;8.942;2023-11-21T06:52:58;15.40;;;2.80;;
5032;SDS011;2535;49.888;8.942;2023-11-21T06:55:24;13.70;;;2.33;;
5032;SDS011;2535;49.888;8.942;2023-11-21T06:57:50;16.57;;;2.53;;
5032;SDS011;2535;49.888;8.942;2023-11-21T07:00:17;14.50;;;2.50;;
5032;SDS011;2535;49.888;8.942;2023-11-21T07:02:43;18.10;;;2.53;;
5032;SDS011;2535;49.888;8.942;2023-11-21T07:05:09;13.43;;;2.17;;
5032;SDS011;2535;49.888;8.942;2023-11-21T07:07:36;14.40;;;3.17;;
5032;SDS011;2535;49.888;8.942;2023-11-21T07:10:02;14.33;;;2.00;;
5032;SDS011;2535;49.888;8.942;2023-11-21T07:12:31;19.60;;;2.67;;
5032;SDS011;2535;49.888;8.942;2023-11-21T07:14:57;12.50;;;1.97;;
5032;SDS011;2535;49.888;8.942;2023-11-21T07:17:23;14.10;;;2.30;;
5032;SDS011;2535;49.888;8.942;2023-11-21T07:19:49;15.17;;;2.80;;
5032;SDS011;2535;49.888;8.942;2023-11-21T07:22:16;12.53;;;1.80;;
5032;SDS011;2535;49.888;8.942;2023-11-21T07:24:49;16.40;;;1.90;;
5032;SDS011;2535;49.888;8.942;2023-11-21T07:27:18;16.77;;;2.70;;
5032;SDS011;2535;49.888;8.942;2023-11-21T07:29:44;14.17;;;2.67;;
5032;SDS011;2535;49.888;8.942;2023-11-21T07:32:10;13.10;;;2.20;;
5032;SDS011;2535;49.888;8.942;2023-11-21T07:34:37;12.73;;;2.07;;
5032;SDS011;2535;49.888;8.942;2023-11-21T07:37:03;12.50;;;1.70;;
5032;SDS011;2535;49.888;8.942;2023-11-21T07:39:29;14.00;;;2.53;;
5032;SDS011;2535;49.888;8.942;2023-11-21T07:41:55;13.73;;;2.20;;
5032;SDS011;2535;49.888;8.942;2023-11-21T07:44:22;13.43;;;2.43;;
5032;SDS011;2535;49.888;8.942;2023-11-21T07:46:48;15.27;;;2.63;;
5032;SDS011;2535;49.888;8.942;2023-11-21T07:49:15;14.00;;;2.00;;
5032;SDS011;2535;49.888;8.942;2023-11-21T07:51:43;14.17;;;2.63;;
5032;SDS011;2535;49.888;8.942;2023-11-21T07:54:09;13.87;;;2.30;;
5032;SDS011;2535;49.888;8.942;2023-11-21T07:56:35;15.83;;;3.40;;
5032;SDS011;2535;49.888;8.942;2023-11-21T07:59:01;13.23;;;1.90;;
5032;SDS011;2535;49.888;8.942;2023-11-21T08:01:27;12.80;;;2.03;;
5032;SDS011;2535;49.888;8.942;2023-11-21T08:03:53;14.80;;;2.20;;
5032;SDS011;2535;49.888;8.942;2023-11-21T08:06:22;12.87;;;2.20;;
5032;SDS011;2535;49.888;8.942;2023-11-21T08:08:48;15.50;;;3.07;;
5032;SDS011;2535;49.888;8.942;2023-11-21T08:11:14;16.00;;;3.63;;
5032;SDS011;2535;49.888;8.942;2023-11-21T08:13:41;14.60;;;2.73;;
5032;SDS011;2535;49.888;8.942;2023-11-21T08:16:07;14.50;;;2.73;;
5032;SDS011;2535;49.888;8.942;2023-11-21T08:18:33;14.50;;;2.50;;
5032;SDS011;2535;49.888;8.942;2023-11-21T08:21:00;18.50;;;3.70;;
5032;SDS011;2535;49.888;8.942;2023-11-21T08:23:26;15.10;;;2.93;;
5032;SDS011;2535;49.888;8.942;2023-11-21T08:25:53;15.63;;;3.13;;
5032;SDS011;2535;49.888;8.942;2023-11-21T08:28:20;15.10;;;2.97;;
5032;SDS011;2535;49.888;8.942;2023-11-21T08:30:50;13.63;;;2.53;;
5032;SDS011;2535;49.888;8.942;2023-11-21T08:33:17;14.10;;;2.40;;
5032;SDS011;2535;49.888;8.942;2023-11-21T08:35:43;12.67;;;2.03;;
5032;SDS011;2535;49.888;8.942;2023-11-21T08:38:10;14.60;;;2.97;;
5032;SDS011;2535;49.888;8.942;2023-11-21T08:40:37;21.70;;;3.00;;
5032;SDS011;2535;49.888;8.942;2023-11-21T08:43:03;15.53;;;2.20;;
5032;SDS011;2535;49.888;8.942;2023-11-21T08:45:33;15.20;;;3.13;;
5032;SDS011;2535;49.888;8.942;2023-11-21T08:47:59;14.20;;;2.80;;
5032;SDS011;2535;49.888;8.942;2023-11-21T08:50:26;14.17;;;2.40;;
5032;SDS011;2535;49.888;8.942;2023-11-21T08:52:51;14.77;;;2.43;;
5032;SDS011;2535;49.888;8.942;2023-11-21T08:55:17;19.00;;;2.73;;
5032;SDS011;2535;49.888;8.942;2023-11-21T08:57:45;15.23;;;2.17;;
5032;SDS011;2535;49.888;8.942;2023-11-21T09:00:14;15.50;;;2.80;;
5032;SDS011;2535;49.888;8.942;2023-11-21T09:02:42;12.40;;;1.97;;
5032;SDS011;2535;49.888;8.942;2023-11-21T09:05:08;17.37;;;2.60;;
5032;SDS011;2535;49.888;8.942;2023-11-21T09:07:34;24.63;;;3.17;;
5032;SDS011;2535;49.888;8.942;2023-11-21T09:10:00;17.17;;;2.27;;
5032;SDS011;2535;49.888;8.942;2023-11-21T09:12:26;13.90;;;2.10;;
5032;SDS011;2535;49.888;8.942;2023-11-21T09:14:52;13.10;;;2.10;;
5032;SDS011;2535;49.888;8.942;2023-11-21T09:17:18;12.93;;;2.10;;
5032;SDS011;2535;49.888;8.942;2023-11-21T09:19:44;13.83;;;2.20;;
5032;SDS011;2535;49.888;8.942;2023-11-21T09:22:14;13.83;;;2.47;;
5032;SDS011;2535;49.888;8.942;2023-11-21T09:24:41;13.20;;;2.00;;
5032;SDS011;2535;49.888;8.942;2023-11-21T09:27:07;13.03;;;2.17;;
5032;SDS011;2535;49.888;8.942;2023-11-21T09:29:34;12.40;;;2.10;;
5032;SDS011;2535;49.888;8.942;2023-11-21T09:32:00;13.00;;;1.80;;
5032;SDS011;2535;49.888;8.942;2023-11-21T09:34:26;12.10;;;1.97;;
5032;SDS011;2535;49.888;8.942;2023-11-21T09:36:52;13.10;;;2.50;;
5032;SDS011;2535;49.888;8.942;2023-11-21T09:39:18;12.90;;;2.50;;
5032;SDS011;2535;49.888;8.942;2023-11-21T09:41:51;12.10;;;2.10;;
5032;SDS011;2535;49.888;8.942;2023-11-21T09:44:22;12.20;;;1.80;;
5032;SDS011;2535;49.888;8.942;2023-11-21T09:46:53;14.63;;;2.67;;
5032;SDS011;2535;49.888;8.942;2023-11-21T09:49:21;12.60;;;2.50;;
5032;SDS011;2535;49.888;8.942;2023-11-21T09:51:53;13.50;;;2.53;;
5032;SDS011;2535;49.888;8.942;2023-11-21T09:54:22;11.73;;;1.50;;
5032;SDS011;2535;49.888;8.942;2023-11-21T09:56:48;12.37;;;1.87;;
5032;SDS011;2535;49.888;8.942;2023-11-21T09:59:15;13.60;;;2.60;;
5032;SDS011;2535;49.888;8.942;2023-11-21T10:01:41;12.50;;;1.67;;
5032;SDS011;2535;49.888;8.942;2023-11-21T10:04:10;14.23;;;2.70;;
5032;SDS011;2535;49.888;8.942;2023-11-21T10:06:39;16.00;;;2.90;;
5032;SDS011;2535;49.888;8.942;2023-11-21T10:09:07;14.27;;;2.47;;
5032;SDS011;2535;49.888;8.942;2023-11-21T10:11:36;11.60;;;1.90;;
5032;SDS011;2535;49.888;8.942;2023-11-21T10:14:03;11.63;;;1.50;;
5032;SDS011;2535;49.888;8.942;2023-11-21T10:16:30;14.60;;;2.57;;
5032;SDS011;2535;49.888;8.942;2023-11-21T10:18:57;12.27;;;1.90;;
5032;SDS011;2535;49.888;8.942;2023-11-21T10:21:24;12.37;;;1.70;;
5032;SDS011;2535;49.888;8.942;2023-11-21T10:23:51;12.47;;;1.93;;
5032;SDS011;2535;49.888;8.942;2023-11-21T10:26:18;15.47;;;2.57;;
5032;SDS011;2535;49.888;8.942;2023-11-21T10:28:55;15.33;;;2.20;;
5032;SDS011;2535;49.888;8.942;2023-11-21T10:31:22;12.93;;;1.70;;
5032;SDS011;2535;49.888;8.942;2023-11-21T10:33:49;14.80;;;2.60;;
5032;SDS011;2535;49.888;8.942;2023-11-21T10:36:24;12.60;;;2.03;;
5032;SDS011;2535;49.888;8.942;2023-11-21T10:38:51;12.07;;;1.97;;
5032;SDS011;2535;49.888;8.942;2023-11-21T10:41:18;14.10;;;2.00;;
5032;SDS011;2535;49.888;8.942;2023-11-21T10:43:44;12.27;;;1.80;;
5032;SDS011;2535;49.888;8.942;2023-11-21T10:46:10;15.07;;;2.27;;
5032;SDS011;2535;49.888;8.942;2023-11-21T10:48:36;12.00;;;1.70;;
5032;SDS011;2535;49.888;8.942;2023-11-21T10:51:06;11.70;;;1.73;;
5032;SDS011;2535;49.888;8.942;2023-11-21T10:53:32;11.83;;;1.70;;
5032;SDS011;2535;49.888;8.942;2023-11-21T10:56:02;11.60;;;1.77;;
5032;SDS011;2535;49.888;8.942;2023-11-21T10:58:35;12.60;;;2.20;;
5032;SDS011;2535;49.888;8.942;2023-11-21T11:01:03;12.00;;;1.70;;
5032;SDS011;2535;49.888;8.942;2023-11-21T11:03:31;11.30;;;1.33;;
5032;SDS011;2535;49.888;8.942;2023-11-21T11:05:58;11.77;;;1.80;;
5032;SDS011;2535;49.888;8.942;2023-11-21T11:08:24;10.70;;;1.40;;
5032;SDS011;2535;49.888;8.942;2023-11-21T11:10:52;12.20;;;1.80;;
5032;SDS011;2535;49.888;8.942;2023-11-21T11:13:18;13.00;;;2.33;;
5032;SDS011;2535;49.888;8.942;2023-11-21T11:15:47;12.10;;;1.97;;
5032;SDS011;2535;49.888;8.942;2023-11-21T11:18:13;11.70;;;1.60;;
5032;SDS011;2535;49.888;8.942;2023-11-21T11:20:40;12.30;;;1.83;;
5032;SDS011;2535;49.888;8.942;2023-11-21T11:30:40;14.30;;;2.13;;
5032;SDS011;2535;49.888;8.942;2023-11-21T11:33:14;11.20;;;1.97;;
5032;SDS011;2535;49.888;8.942;2023-11-21T11:38:31;13.27;;;3.13;;
5032;SDS011;2535;49.888;8.942;2023-11-21T11:41:03;11.30;;;1.70;;
5032;SDS011;2535;49.888;8.942;2023-11-21T11:43:30;10.80;;;1.40;;
5032;SDS011;2535;49.888;8.942;2023-11-21T11:45:58;11.50;;;2.10;;
5032;SDS011;2535;49.888;8.942;2023-11-21T11:48:24;17.53;;;1.80;;
5032;SDS011;2535;49.888;8.942;2023-11-21T11:51:06;22.33;;;1.53;;
5032;SDS011;2535;49.888;8.942;2023-11-21T11:53:37;12.30;;;1.93;;
5032;SDS011;2535;49.888;8.942;2023-11-21T11:58:47;13.07;;;2.40;;
5032;SDS011;2535;49.888;8.942;2023-11-21T12:01:13;12.30;;;2.13;;
5032;SDS011;2535;49.888;8.942;2023-11-21T12:03:39;11.90;;;1.83;;
5032;SDS011;2535;49.888;8.942;2023-11-21T12:06:05;14.20;;;1.93;;
5032;SDS011;2535;49.888;8.942;2023-11-21T12:08:32;11.10;;;1.73;;
5032;SDS011;2535;49.888;8.942;2023-11-21T12:10:59;11.80;;;1.80;;
5032;SDS011;2535;49.888;8.942;2023-11-21T12:13:27;11.03;;;2.30;;
5032;SDS011;2535;49.888;8.942;2023-11-21T12:15:54;13.67;;;2.13;;
5032;SDS011;2535;49.888;8.942;2023-11-21T12:18:20;10.50;;;1.50;;
5032;SDS011;2535;49.888;8.942;2023-11-21T12:20:46;13.00;;;2.60;;
5032;SDS011;2535;49.888;8.942;2023-11-21T12:23:15;13.23;;;1.77;;
5032;SDS011;2535;49.888;8.942;2023-11-21T12:25:42;18.73;;;2.27;;
5032;SDS011;2535;49.888;8.942;2023-11-21T12:28:08;11.20;;;1.73;;
5032;SDS011;2535;49.888;8.942;2023-11-21T12:30:34;13.90;;;1.80;;
5032;SDS011;2535;49.888;8.942;2023-11-21T12:33:01;19.90;;;1.70;;
5032;SDS011;2535;49.888;8.942;2023-11-21T12:35:31;12.03;;;2.10;;
5032;SDS011;2535;49.888;8.942;2023-11-21T12:37:59;11.23;;;1.67;;
5032;SDS011;2535;49.888;8.942;2023-11-21T12:40:27;11.20;;;1.70;;
5032;SDS011;2535;49.888;8.942;2023-11-21T12:42:55;11.87;;;2.13;;
5032;SDS011;2535;49.888;8.942;2023-11-21T12:45:22;10.20;;;1.73;;
5032;SDS011;2535;49.888;8.942;2023-11-21T12:47:50;14.47;;;2.53;;
5032;SDS011;2535;49.888;8.942;2023-11-21T12:50:20;10.83;;;1.20;;
5032;SDS011;2535;49.888;8.942;2023-11-21T12:52:48;12.27;;;2.00;;
5032;SDS011;2535;49.888;8.942;2023-11-21T12:55:18;10.87;;;1.90;;
5032;SDS011;2535;49.888;8.942;2023-11-21T12:57:47;14.77;;;2.03;;
5032;SDS011;2535;49.888;8.942;2023-11-21T13:00:15;10.40;;;1.60;;
5032;SDS011;2535;49.888;8.942;2023-11-21T13:02:52;12.87;;;1.10;;
5032;SDS011;2535;49.888;8.942;2023-11-21T13:05:28;12.17;;;1.80;;
5032;SDS011;2535;49.888;8.942;2023-11-21T13:07:58;11.50;;;2.20;;
5032;SDS011;2535;49.888;8.942;2023-11-21T13:10:27;10.00;;;1.57;;
5032;SDS011;2535;49.888;8.942;2023-11-21T13:12:57;12.97;;;1.80;;
5032;SDS011;2535;49.888;8.942;2023-11-21T13:15:26;11.30;;;1.80;;
5032;SDS011;2535;49.888;8.942;2023-11-21T13:17:53;12.10;;;2.27;;
5032;SDS011;2535;49.888;8.942;2023-11-21T13:20:19;11.47;;;2.27;;
5032;SDS011;2535;49.888;8.942;2023-11-21T13:22:49;9.97;;;1.27;;
5032;SDS011;2535;49.888;8.942;2023-11-21T13:25:19;10.60;;;1.90;;
5032;SDS011;2535;49.888;8.942;2023-11-21T13:27:45;10.30;;;1.53;;
5032;SDS011;2535;49.888;8.942;2023-11-21T13:30:12;12.80;;;2.53;;
5032;SDS011;2535;49.888;8.942;2023-11-21T13:32:42;11.67;;;1.63;;
5032;SDS011;2535;49.888;8.942;2023-11-21T13:35:09;11.17;;;2.27;;
5032;SDS011;2535;49.888;8.942;2023-11-21T13:37:45;10.27;;;1.70;;
5032;SDS011;2535;49.888;8.942;2023-11-21T13:40:13;10.20;;;1.90;;
5032;SDS011;2535;49.888;8.942;2023-11-21T13:42:42;29.77;;;1.93;;
5032;SDS011;2535;49.888;8.942;2023-11-21T13:45:08;11.30;;;1.90;;
5032;SDS011;2535;49.888;8.942;2023-11-21T13:47:34;10.77;;;1.57;;
5032;SDS011;2535;49.888;8.942;2023-11-21T13:50:02;17.00;;;2.30;;
5032;SDS011;2535;49.888;8.942;2023-11-21T13:52:29;12.20;;;2.50;;
5032;SDS011;2535;49.888;8.942;2023-11-21T13:54:58;10.10;;;1.50;;
5032;SDS011;2535;49.888;8.942;2023-11-21T13:57:27;10.73;;;1.63;;
5032;SDS011;2535;49.888;8.942;2023-11-21T13:59:53;11.60;;;2.00;;
5032;SDS011;2535;49.888;8.942;2023-11-21T14:02:19;13.83;;;2.57;;
5032;SDS011;2535;49.888;8.942;2023-11-21T14:04:53;13.00;;;2.07;;
5032;SDS011;2535;49.888;8.942;2023-11-21T14:07:25;12.10;;;2.30;;
5032;SDS011;2535;49.888;8.942;2023-11-21T14:10:00;14.43;;;2.50;;
5032;SDS011;2535;49.888;8.942;2023-11-21T14:12:26;10.40;;;1.97;;
5032;SDS011;2535;49.888;8.942;2023-11-21T14:14:53;11.47;;;2.57;;
5032;SDS011;2535;49.888;8.942;2023-11-21T14:17:20;11.27;;;2.57;;
5032;SDS011;2535;49.888;8.942;2023-11-21T14:19:49;12.20;;;2.23;;
5032;SDS011;2535;49.888;8.942;2023-11-21T14:22:15;13.80;;;2.70;;
5032;SDS011;2535;49.888;8.942;2023-11-21T14:24:42;16.90;;;2.67;;
5032;SDS011;2535;49.888;8.942;2023-11-21T14:27:11;11.53;;;1.97;;
5032;SDS011;2535;49.888;8.942;2023-11-21T14:29:37;11.30;;;1.93;;
5032;SDS011;2535;49.888;8.942;2023-11-21T14:32:07;12.03;;;2.30;;
5032;SDS011;2535;49.888;8.942;2023-11-21T14:34:34;12.73;;;2.70;;
5032;SDS011;2535;49.888;8.942;2023-11-21T14:37:00;10.53;;;2.00;;
5032;SDS011;2535;49.888;8.942;2023-11-21T14:39:28;10.27;;;1.53;;
5032;SDS011;2535;49.888;8.942;2023-11-21T14:41:54;29.00;;;2.63;;
5032;SDS011;2535;49.888;8.942;2023-11-21T14:44:21;10.67;;;2.13;;
5032;SDS011;2535;49.888;8.942;2023-11-21T14:46:51;11.70;;;1.90;;
5032;SDS011;2535;49.888;8.942;2023-11-21T14:49:19;13.50;;;1.70;;
5032;SDS011;2535;49.888;8.942;2023-11-21T14:51:46;10.60;;;1.60;;
5032;SDS011;2535;49.888;8.942;2023-11-21T14:54:25;11.97;;;2.07;;
5032;SDS011;2535;49.888;8.942;2023-11-21T14:57:05;11.30;;;1.80;;
5032;SDS011;2535;49.888;8.942;2023-11-21T14:59:35;12.87;;;2.77;;
5032;SDS011;2535;49.888;8.942;2023-11-21T15:02:01;10.30;;;1.67;;
5032;SDS011;2535;49.888;8.942;2023-11-21T15:04:39;17.90;;;1.83;;
5032;SDS011;2535;49.888;8.942;2023-11-21T15:07:07;12.87;;;2.97;;
5032;SDS011;2535;49.888;8.942;2023-11-21T15:09:33;10.93;;;1.80;;
5032;SDS011;2535;49.888;8.942;2023-11-21T15:11:59;11.93;;;2.30;;
5032;SDS011;2535;49.888;8.942;2023-11-21T15:14:46;12.53;;;2.23;;